Portada
METAR-TAF:

METAR-TAF

Aeroports :

Txengdu, Xina

latitud: 30-40N, longitud: 104-01E, altitud: 508 m

Observació

L'informe es va fer fa 1 hora i 0 minuts, a les 13:00 UTC
Vent 2 kt amb direcció variable
Temperatura 29°C
Humitat 66%
Pressió 1002 hPa
Visibilitat 10 km o més
Escasses núvols a una alçada de 2600 ft, Cumulus congestus.
Cel ennuvolat a una alçada de 2600 ft
xàfecs de pluja

METAR: ZUUU 201300Z VRB01MPS 9999 -SHRA FEW026TCU BKN026 29/22 Q1002 NOSIG

Hora: 22:00 (14:00 UTC)

Pronòstic

L'informe es va fer fa 5 hores i 55 minuts, a les 08:05 UTC
Pronòstic vàlid del 20 a les 12 UTC al 21 a les 12 UTC
Vent 6 kt del Sud-Oest
Visibilitat: 5000 m
Núvols disperses a una alçada de 5000 ft
boirina
Temporalment
l' 20 a les 20 UTC al 20 a les 24 UTC
Escasses núvols a una alçada de 3000 ft, Cumulonimbus.
Núvols disperses a una alçada de 3000 ft
xàfecs de pluja

TAF: ZUUU 200805Z 2012/2112 22003MPS 5000 BR SCT050 TX31/2107Z TN24/2023Z TEMPO 2020/2024 -SHRA FEW030CB SCT030

Observacions i pronòstics meteorològics de més de 4000 aeroports (METAR i TAF).

Les estacions disponibles són els punts grocs i vermells al mapa.

Posi el ratolí al punt desitjat per veure el nom de l'estació.

Feu clic per veure les observacions i els pronòstics meteorològics.

Per canviar el mapa: feu clic els botons verds amb una creu de color negre per apropar; al botó verd amb un guió per allunyar la imatge; o en les fletxes verdes per a mapes adjacents.


METAR-TAF: